• Join FlightAware (Why Join?)
  • Login
  • US Flag 
07:38AM EDT


 

Airport Tracker/Info


-or-


 

Live Flight TrackerFlight Track Log ✈ UCA596 ✈ 27-Oct-2013 ✈ KIAD - KBGM

Flight Track Log - Related Links

Times and Time Zones

All times are in EDT time to prevent confusion due to time zone crossing. See the UCA596 flight status page for this flight to view local times or setup timezone preferences in your user account.

Time Position Orientation Groundspeed Altitude Reporting Facility
EDT Latitude Longitude Course Direction KTS MPH feet Rate Location/Type
01:11PM 38.9667 -77.4833 North 147 169 1,700  Level Potomac TRACON
01:12PM 39.0000 -77.4833 360° North 177 204 3,200 1,740 Climbing Potomac TRACON
01:13PM 39.0667 -77.4667 11° North 172 198 5,200 1,740 Climbing Potomac TRACON
01:14PM 39.1000 -77.4667 360° North 171 197 6,900 1,500 Climbing Potomac TRACON
01:15PM 39.1500 -77.4500 14° North 191 220 8,100 1,260 Climbing Potomac TRACON
01:16PM 39.2000 -77.4500 360° North 187 215 9,300 1,320 Climbing Potomac TRACON
01:17PM 39.5105 -77.4500 North  Level FlightAware Approximate
01:17PM 39.2500 -77.4500 360° North 192 221 10,800  Level Potomac TRACON
01:19PM 39.3594 -77.4597 356° North 201 231 13,300 1,320 Climbing Washington Center
01:21PM 39.4858 -77.4589 360° North 200 230 16,300 1,320 Climbing New York Center
01:22PM 39.5444 -77.4589 360° North 200 230 17,500 1,320 Climbing New York Center
01:23PM 39.6008 -77.4536 North 200 230 19,000 720 Climbing New York Center
01:24PM 39.6572 -77.4536 360° North 207 238 19,000  Level New York Center
01:25PM 39.7325 -77.4525 North 237 273 19,000  Level New York Center
01:26PM 39.7969 -77.4533 359° North 253 291 19,000  Level New York Center
01:27PM 39.8783 -77.4531 360° North 258 297 19,000  Level New York Center
01:28PM 39.9431 -77.4508 North 253 291 19,000  Level New York Center
01:29PM 40.0228 -77.4069 23° Northeast 265 305 19,000  Level New York Center
01:30PM 40.0875 -77.3697 24° Northeast 275 316 19,000  Level New York Center
01:31PM 40.1669 -77.3258 23° Northeast 280 322 19,000  Level New York Center
01:32PM 40.2317 -77.2883 24° Northeast 280 322 19,000  Level New York Center
01:33PM 40.3092 -77.2439 24° Northeast 280 322 19,000  Level New York Center
01:34PM 40.3736 -77.2064 24° Northeast 280 322 19,000  Level New York Center
01:35PM 40.4533 -77.1592 24° Northeast 280 322 19,000  Level New York Center
01:36PM 40.5200 -77.1217 23° Northeast 280 322 19,000  Level New York Center
01:37PM 40.5997 -77.0744 24° Northeast 280 322 19,000  Level New York Center
01:38PM 40.6664 -77.0339 25° Northeast 287 330 19,000  Level New York Center
01:39PM 40.7394 -76.9914 24° Northeast 287 330 19,000  Level New York Center
01:40PM 40.8128 -76.9486 24° Northeast 287 330 19,000 -540 Level New York Center
01:41PM 40.8964 -76.9011 23° Northeast 294 338 18,000 -960 Descending New York Center
01:42PM 40.9653 -76.8581 25° Northeast 294 338 17,100 -480 Descending New York Center
01:43PM 41.0428 -76.8125 24° Northeast 294 338 17,100  Level New York Center
01:44PM 41.1156 -76.7694 24° Northeast 294 338 17,100  Level New York Center
01:45PM 41.1886 -76.7264 24° Northeast 294 338 17,100  Level New York Center
01:46PM 41.2597 -76.6831 25° Northeast 287 330 17,100  Level New York Center
01:47PM 41.3325 -76.6394 24° Northeast 287 330 17,100  Level New York Center
01:48PM 41.4056 -76.5961 24° Northeast 287 330 17,100  Level New York Center
01:49PM 41.4850 -76.5503 23° Northeast 281 323 17,100  Level New York Center
01:50PM 41.5558 -76.5039 26° Northeast 281 323 17,100 -660 Level New York Center
01:51PM 41.6331 -76.4578 24° Northeast 286 329 15,800 -1,320 Descending New York Center
01:52PM 41.7017 -76.4164 24° Northeast 292 336 14,500 -1,500 Descending New York Center
01:53PM 41.7853 -76.3678 23° Northeast 301 346 12,900 -1,800 Descending New York Center
01:54PM 41.8539 -76.3233 26° Northeast 282 325 11,000 -1,800 Descending New York Center
01:55PM 41.9208 -76.2706 30° Northeast 276 318 9,300 -1,800 Descending New York Center
01:56PM 41.9778 -76.2111 38° Northeast 271 312 7,400 -1,980 Descending New York Center
01:57PM 42.0300 -76.1594 36° Northeast 258 297 5,400 -1,620 Descending New York Center
01:58PM 42.0814 -76.0825 48° Northeast 252 290 4,200 -900 Descending New York Center
01:59PM 42.1139 -76.0069 60° Northeast 241 277 3,600 -480 Descending New York Center
02:00PM 42.1500 -75.9456 52° Northeast 226 260 3,300 -600 Descending New York Center
02:01PM 42.1922 -75.9319 13° North 169 194 2,500 -600 Descending New York Center
02:02PM 42.2169 -75.9367 228° Southwest 123 142 2,100 3,240 Descending New York Center
02:03PM 42.2084 -75.9796 287° West  Level Estimated
02:03PM 42.2486 -75.9253 287° West 123 142 9,000  Level New York Center
02:04PM 42.2803 -75.9136 15° North 123 142 9,000  Level New York Center
02:06PM 42.2000 -75.9667 228° Southwest  Level FlightAware Approximate
02:08PM 42.2000 -75.9667 236° Southwest  Level FlightAware Approximate
02:15PM 42.2084 -75.9796 236° Southwest  Level Estimated
02:16PM 42.2084 -75.9796 236° Southwest  Level Estimated
02:17PM 42.2084 -75.9796 236° Southwest  Level Estimated
02:18PM 42.2084 -75.9796 236° Southwest  Level Estimated
02:19PM 42.2084 -75.9796 236° Southwest  Level Estimated